createdAt,value
2023-04-26T00:00:50.295Z,5.47
2023-04-26T00:03:16.867Z,7.40
2023-04-26T00:05:43.709Z,6.20
2023-04-26T00:08:10.467Z,10.17
2023-04-26T00:10:37.161Z,5.43
2023-04-26T00:13:03.701Z,7.63
2023-04-26T00:15:30.362Z,9.10
2023-04-26T00:17:57.077Z,8.07
2023-04-26T00:20:23.983Z,6.67
2023-04-26T00:22:51.167Z,8.17
2023-04-26T00:25:17.948Z,8.63
2023-04-26T00:27:44.427Z,6.40
2023-04-26T00:30:11.458Z,6.93
2023-04-26T00:32:38.079Z,6.53
2023-04-26T00:35:04.940Z,8.53
2023-04-26T00:37:31.633Z,7.80
2023-04-26T00:39:58.029Z,6.23
2023-04-26T00:42:24.672Z,7.10
2023-04-26T00:44:55.261Z,8.13
2023-04-26T00:47:21.796Z,10.73
2023-04-26T00:49:48.264Z,7.67
2023-04-26T00:52:14.753Z,7.37
2023-04-26T00:54:41.745Z,6.20
2023-04-26T00:57:09.762Z,7.13
2023-04-26T00:59:36.537Z,9.43
2023-04-26T01:02:03.658Z,10.60
2023-04-26T01:04:31.008Z,7.80
2023-04-26T01:06:58.339Z,7.17
2023-04-26T01:09:25.360Z,6.63
2023-04-26T01:11:52.864Z,7.20
2023-04-26T01:14:20.513Z,7.27
2023-04-26T01:16:47.488Z,8.97
2023-04-26T01:19:15.433Z,10.97
2023-04-26T01:21:42.827Z,10.13
2023-04-26T01:24:11.004Z,9.00
2023-04-26T01:26:45.851Z,10.90
2023-04-26T01:29:20.918Z,12.47
2023-04-26T01:31:48.326Z,9.93
2023-04-26T01:34:15.724Z,9.83
2023-04-26T01:36:42.701Z,10.40
2023-04-26T01:39:10.332Z,10.53
2023-04-26T01:41:37.162Z,12.10
2023-04-26T01:44:04.530Z,10.67
2023-04-26T01:46:31.227Z,10.27
2023-04-26T01:48:58.066Z,9.20
2023-04-26T01:51:24.802Z,11.83
2023-04-26T01:53:51.713Z,11.13
2023-04-26T01:56:19.532Z,9.50
2023-04-26T01:58:46.245Z,12.17
2023-04-26T02:01:12.920Z,7.30
2023-04-26T02:03:39.566Z,6.53
2023-04-26T02:06:06.461Z,8.43
2023-04-26T02:08:33.540Z,10.50
2023-04-26T02:11:00.238Z,12.27
2023-04-26T02:13:27.130Z,9.30
2023-04-26T02:15:54.255Z,11.03
2023-04-26T02:18:22.201Z,8.43
2023-04-26T02:20:48.982Z,9.47
2023-04-26T02:23:15.894Z,10.43
2023-04-26T02:25:45.876Z,11.53
2023-04-26T02:28:12.556Z,13.50
2023-04-26T02:30:39.258Z,12.33
2023-04-26T02:33:06.021Z,12.63
2023-04-26T02:35:32.622Z,11.77
2023-04-26T02:37:59.164Z,11.27
2023-04-26T02:40:25.831Z,10.97
2023-04-26T02:42:52.354Z,11.63
2023-04-26T02:45:19.025Z,9.50
2023-04-26T02:47:45.885Z,13.00
2023-04-26T02:50:12.425Z,12.17
2023-04-26T02:52:38.962Z,9.97
2023-04-26T02:55:06.076Z,11.53
2023-04-26T02:57:33.173Z,11.33
2023-04-26T02:59:59.810Z,9.90
2023-04-26T03:02:26.606Z,13.83
2023-04-26T03:04:53.699Z,10.30
2023-04-26T03:07:20.276Z,10.87
2023-04-26T03:09:46.902Z,10.97
2023-04-26T03:12:13.956Z,10.80
2023-04-26T03:14:40.443Z,9.53
2023-04-26T03:17:06.865Z,10.73
2023-04-26T03:19:34.210Z,7.90
2023-04-26T03:22:00.643Z,10.63
2023-04-26T03:24:27.158Z,11.43
2023-04-26T03:26:54.126Z,9.03
2023-04-26T03:29:20.682Z,10.67
2023-04-26T03:31:47.183Z,10.70
2023-04-26T03:34:13.773Z,8.50
2023-04-26T03:36:40.214Z,11.23
2023-04-26T03:39:06.745Z,13.07
2023-04-26T03:41:37.013Z,10.00
2023-04-26T03:44:03.651Z,10.53
2023-04-26T03:46:30.620Z,11.23
2023-04-26T03:48:57.188Z,9.97
2023-04-26T03:51:23.616Z,14.27
2023-04-26T03:53:50.086Z,12.60
2023-04-26T03:56:17.086Z,10.63
2023-04-26T03:58:43.582Z,12.00
2023-04-26T04:01:10.072Z,8.87
2023-04-26T04:03:39.196Z,9.60
2023-04-26T04:06:07.956Z,11.73
2023-04-26T04:08:34.429Z,9.40
2023-04-26T04:11:01.423Z,14.33
2023-04-26T04:13:27.920Z,12.07
2023-04-26T04:15:54.535Z,11.00
2023-04-26T04:18:21.233Z,13.43
2023-04-26T04:20:47.743Z,7.93
2023-04-26T04:23:14.360Z,14.67
2023-04-26T04:25:41.092Z,9.90
2023-04-26T04:28:08.543Z,8.47
2023-04-26T04:30:35.636Z,8.97
2023-04-26T04:33:03.460Z,19.17
2023-04-26T04:35:33.825Z,12.00
2023-04-26T04:38:01.750Z,12.00
2023-04-26T04:40:28.532Z,14.83
2023-04-26T04:42:55.632Z,15.17
2023-04-26T04:45:22.255Z,12.30
2023-04-26T04:47:48.898Z,13.53
2023-04-26T04:50:15.974Z,9.73
2023-04-26T04:52:42.626Z,9.13
2023-04-26T04:55:09.918Z,10.90
2023-04-26T04:57:36.514Z,10.47
2023-04-26T05:00:10.284Z,12.60
2023-04-26T05:02:37.662Z,9.30
2023-04-26T05:05:05.288Z,10.03
2023-04-26T05:07:32.533Z,10.77
2023-04-26T05:09:59.843Z,12.93
2023-04-26T05:12:26.560Z,11.43
2023-04-26T05:14:53.275Z,13.03
2023-04-26T05:17:20.146Z,9.47
2023-04-26T05:19:47.337Z,8.37
2023-04-26T05:22:18.426Z,10.27
2023-04-26T05:24:48.263Z,9.10
2023-04-26T05:27:15.040Z,12.27
2023-04-26T05:29:42.062Z,6.97
2023-04-26T05:32:08.916Z,13.57
2023-04-26T05:34:35.536Z,9.13
2023-04-26T05:37:02.060Z,10.17
2023-04-26T05:39:28.522Z,10.30
2023-04-26T05:41:55.074Z,9.60
2023-04-26T05:44:21.764Z,7.83
2023-04-26T05:46:48.283Z,9.90
2023-04-26T05:49:14.772Z,7.43
2023-04-26T05:51:41.334Z,9.23
2023-04-26T05:54:07.831Z,8.20
2023-04-26T05:56:34.399Z,8.57
2023-04-26T05:59:00.856Z,7.90
2023-04-26T06:01:27.830Z,8.67
2023-04-26T06:03:57.965Z,9.80
2023-04-26T06:06:28.208Z,9.77
2023-04-26T06:08:55.035Z,11.23
2023-04-26T06:11:21.680Z,13.20
2023-04-26T06:13:48.290Z,8.80
2023-04-26T06:16:14.830Z,8.57
2023-04-26T06:18:41.626Z,9.10
2023-04-26T06:21:08.192Z,10.73
2023-04-26T06:23:34.764Z,9.43
2023-04-26T06:26:01.314Z,14.57
2023-04-26T06:28:27.778Z,13.63
2023-04-26T06:30:54.218Z,14.13
2023-04-26T06:33:20.797Z,13.70
2023-04-26T06:35:47.280Z,12.77
2023-04-26T06:38:13.838Z,15.87
2023-04-26T06:40:40.309Z,8.57
2023-04-26T06:43:06.835Z,9.38
2023-04-26T06:45:33.564Z,9.52
2023-04-26T06:48:01.647Z,9.20
2023-04-26T06:50:28.233Z,11.65
2023-04-26T06:52:54.633Z,10.27
2023-04-26T06:55:21.405Z,10.43
2023-04-26T06:57:49.532Z,9.30
2023-04-26T07:00:16.273Z,10.30
2023-04-26T07:02:42.915Z,8.52
2023-04-26T07:05:09.697Z,13.68
2023-04-26T07:07:36.227Z,9.50
2023-04-26T07:10:03.532Z,9.90
2023-04-26T07:12:31.276Z,12.35
2023-04-26T07:14:58.078Z,10.32
2023-04-26T07:17:24.676Z,11.82
2023-04-26T07:19:51.218Z,13.32
2023-04-26T07:22:17.894Z,14.15
2023-04-26T07:24:44.309Z,12.10
2023-04-26T07:27:11.259Z,8.40
2023-04-26T07:29:38.897Z,6.70
2023-04-26T07:32:06.026Z,10.93
2023-04-26T07:34:32.735Z,9.47
2023-04-26T07:36:59.206Z,8.18
2023-04-26T07:39:26.543Z,9.50
2023-04-26T07:41:53.047Z,11.83
2023-04-26T07:44:19.504Z,8.55
2023-04-26T07:46:46.092Z,8.18
2023-04-26T07:49:13.790Z,8.20
2023-04-26T07:51:44.375Z,9.57
2023-04-26T07:54:11.041Z,7.57
2023-04-26T07:56:37.583Z,10.85
2023-04-26T07:59:05.021Z,7.95
2023-04-26T08:01:31.425Z,7.95
2023-04-26T08:03:58.377Z,11.13
2023-04-26T08:06:25.746Z,5.90
2023-04-26T08:08:53.700Z,7.45
2023-04-26T08:11:20.375Z,6.78
2023-04-26T08:13:46.905Z,10.10
2023-04-26T08:16:14.270Z,11.55
2023-04-26T08:18:40.925Z,9.07
2023-04-26T08:21:07.719Z,11.80
2023-04-26T08:23:38.357Z,9.63
2023-04-26T08:26:05.159Z,15.98
2023-04-26T08:28:32.555Z,8.38
2023-04-26T08:30:59.100Z,10.20
2023-04-26T08:33:26.183Z,7.70
2023-04-26T08:35:52.793Z,9.80
2023-04-26T08:38:19.366Z,8.27
2023-04-26T08:40:46.736Z,12.47
2023-04-26T08:43:15.021Z,6.97
2023-04-26T08:45:44.492Z,6.72
2023-04-26T08:48:14.969Z,8.18
2023-04-26T08:50:45.539Z,8.75
2023-04-26T08:53:17.791Z,8.45
2023-04-26T08:55:51.085Z,8.52
2023-04-26T08:58:18.589Z,8.77
2023-04-26T09:00:46.142Z,9.60
2023-04-26T09:03:13.830Z,6.88
2023-04-26T09:05:43.935Z,7.00
2023-04-26T09:08:13.698Z,9.13
2023-04-26T09:10:40.270Z,7.35
2023-04-26T09:13:06.740Z,8.73
2023-04-26T09:15:33.172Z,8.15
2023-04-26T09:18:20.014Z,7.10
2023-04-26T09:21:05.043Z,7.95
2023-04-26T09:23:32.198Z,9.47
2023-04-26T09:26:21.584Z,8.70
2023-04-26T09:28:48.440Z,7.60
2023-04-26T09:31:39.152Z,6.30
2023-04-26T09:34:05.838Z,7.10
2023-04-26T09:36:32.482Z,5.30
2023-04-26T09:39:00.432Z,8.05
2023-04-26T09:41:43.378Z,5.05
2023-04-26T09:44:21.348Z,6.78
2023-04-26T09:47:05.141Z,10.85
2023-04-26T09:49:44.197Z,7.13
2023-04-26T09:52:10.793Z,6.63
2023-04-26T09:54:51.683Z,3.87
2023-04-26T09:57:19.914Z,4.93
2023-04-26T09:59:55.597Z,6.37
2023-04-26T10:02:23.996Z,6.70
2023-04-26T10:04:52.752Z,9.00
2023-04-26T10:07:21.784Z,13.55
2023-04-26T10:09:49.516Z,5.10
2023-04-26T10:12:18.293Z,9.27
2023-04-26T10:14:46.530Z,6.83
2023-04-26T10:17:13.840Z,7.63
2023-04-26T10:19:44.105Z,8.67
2023-04-26T10:22:16.460Z,8.73
2023-04-26T10:24:44.460Z,12.63
2023-04-26T10:27:11.076Z,7.20
2023-04-26T10:29:56.475Z,12.10
2023-04-26T10:32:23.990Z,4.75
2023-04-26T10:35:13.870Z,8.13
2023-04-26T10:37:59.303Z,7.55
2023-04-26T10:40:33.290Z,7.50
2023-04-26T10:43:08.926Z,5.75
2023-04-26T10:45:36.102Z,8.48
2023-04-26T10:48:17.804Z,6.70
2023-04-26T10:51:02.690Z,7.60
2023-04-26T10:53:34.233Z,8.82
2023-04-26T10:56:00.833Z,7.43
2023-04-26T10:58:28.261Z,6.23
2023-04-26T11:01:17.282Z,6.90
2023-04-26T11:04:02.218Z,6.57
2023-04-26T11:06:47.392Z,6.30
2023-04-26T11:09:37.261Z,8.00
2023-04-26T11:12:05.380Z,11.03
2023-04-26T11:14:34.224Z,4.70
2023-04-26T11:17:04.539Z,7.60
2023-04-26T11:19:31.976Z,8.33
2023-04-26T11:22:01.945Z,7.37
2023-04-26T11:24:31.254Z,7.40
2023-04-26T11:27:00.594Z,8.63
2023-04-26T11:29:27.062Z,6.90
2023-04-26T11:31:58.039Z,6.78
2023-04-26T11:34:35.173Z,6.00
2023-04-26T11:37:02.600Z,7.85
2023-04-26T11:39:29.191Z,5.60
2023-04-26T11:42:09.017Z,5.82
2023-04-26T11:44:36.492Z,5.05
2023-04-26T11:47:04.208Z,8.40
2023-04-26T11:49:36.328Z,11.80
2023-04-26T11:52:04.855Z,7.57
2023-04-26T11:54:32.908Z,7.27
2023-04-26T11:56:59.568Z,7.00
2023-04-26T11:59:27.302Z,5.47
2023-04-26T12:01:53.886Z,9.40
2023-04-26T12:04:30.148Z,6.80
2023-04-26T12:06:57.858Z,7.43
2023-04-26T12:09:25.136Z,7.03
2023-04-26T12:12:08.225Z,4.78
2023-04-26T12:14:36.571Z,7.32
2023-04-26T12:17:06.193Z,6.05
2023-04-26T12:19:33.375Z,6.50
2023-04-26T12:22:01.266Z,8.05
2023-04-26T12:24:38.687Z,10.18
2023-04-26T12:27:09.062Z,8.07
2023-04-26T12:29:35.747Z,5.70
2023-04-26T12:32:03.066Z,5.78
2023-04-26T12:34:29.819Z,6.50
2023-04-26T12:36:56.572Z,6.32
2023-04-26T12:39:23.079Z,6.03
2023-04-26T12:41:49.629Z,5.95
2023-04-26T12:44:16.311Z,6.05
2023-04-26T12:46:42.815Z,7.20
2023-04-26T12:49:09.511Z,7.50
2023-04-26T12:51:35.967Z,7.95
2023-04-26T12:54:02.983Z,6.90
2023-04-26T12:56:29.677Z,7.10
2023-04-26T12:58:56.220Z,7.40
2023-04-26T13:01:22.914Z,10.10
2023-04-26T13:03:49.669Z,8.48
2023-04-26T13:06:16.799Z,9.18
2023-04-26T13:08:43.212Z,7.07
2023-04-26T13:11:09.649Z,7.07
2023-04-26T13:13:43.928Z,9.23
2023-04-26T13:16:11.963Z,8.20
2023-04-26T13:18:39.296Z,8.52
2023-04-26T13:21:05.986Z,6.22
2023-04-26T13:23:32.488Z,11.65
2023-04-26T13:25:58.965Z,8.88
2023-04-26T13:28:25.624Z,9.73
2023-04-26T13:30:52.497Z,6.35
2023-04-26T13:33:21.453Z,8.80
2023-04-26T13:35:48.361Z,6.95
2023-04-26T13:38:15.947Z,6.88
2023-04-26T13:40:42.964Z,7.65
2023-04-26T13:43:09.786Z,9.77
2023-04-26T13:45:36.256Z,6.50
2023-04-26T13:48:02.821Z,6.57
2023-04-26T13:50:29.350Z,8.18
2023-04-26T13:52:56.702Z,5.07
2023-04-26T13:55:23.411Z,6.53
2023-04-26T13:57:49.852Z,6.03
2023-04-26T14:00:16.808Z,7.70
2023-04-26T14:02:43.674Z,8.43
2023-04-26T14:05:10.513Z,8.15
2023-04-26T14:07:37.168Z,7.40
2023-04-26T14:10:04.262Z,12.18
2023-04-26T14:12:31.063Z,9.40
2023-04-26T14:14:57.620Z,8.65
2023-04-26T14:17:25.426Z,8.35
2023-04-26T14:19:54.106Z,7.85
2023-04-26T14:22:21.399Z,4.70
2023-04-26T14:24:47.988Z,7.78
2023-04-26T14:27:14.862Z,7.93
2023-04-26T14:29:41.295Z,9.55
2023-04-26T14:32:07.916Z,8.52
2023-04-26T14:34:39.003Z,7.40
2023-04-26T14:37:06.763Z,6.90
2023-04-26T14:39:33.266Z,7.65
2023-04-26T14:41:59.816Z,8.27
2023-04-26T14:44:27.224Z,7.22
2023-04-26T14:46:53.830Z,12.07
2023-04-26T14:49:20.624Z,6.38
2023-04-26T14:51:47.349Z,7.38
2023-04-26T14:54:13.864Z,8.63
2023-04-26T14:56:40.493Z,8.10
2023-04-26T14:59:08.009Z,9.20
2023-04-26T15:01:34.551Z,6.25
2023-04-26T15:04:01.864Z,7.50
2023-04-26T15:06:29.017Z,7.82
2023-04-26T15:08:55.546Z,10.98
2023-04-26T15:11:22.053Z,7.90
2023-04-26T15:13:48.613Z,10.65
2023-04-26T15:16:15.150Z,9.30
2023-04-26T15:18:41.917Z,9.35
2023-04-26T15:21:09.182Z,7.78
2023-04-26T15:23:36.029Z,5.88
2023-04-26T15:26:03.530Z,6.37
2023-04-26T15:28:30.440Z,9.85
2023-04-26T15:31:08.836Z,14.55
2023-04-26T15:33:35.666Z,9.70
2023-04-26T15:36:02.289Z,8.63
2023-04-26T15:38:28.766Z,9.73
2023-04-26T15:40:55.416Z,8.43
2023-04-26T15:43:22.071Z,8.63
2023-04-26T15:45:49.701Z,6.13
2023-04-26T15:48:16.709Z,8.40
2023-04-26T15:50:43.152Z,10.80
2023-04-26T15:53:09.890Z,9.93
2023-04-26T15:55:36.454Z,7.32
2023-04-26T15:58:03.420Z,11.07
2023-04-26T16:00:31.689Z,8.00
2023-04-26T16:02:58.292Z,8.80
2023-04-26T16:05:24.864Z,10.10
2023-04-26T16:07:51.364Z,6.73
2023-04-26T16:10:17.881Z,9.90
2023-04-26T16:12:44.861Z,9.07
2023-04-26T16:15:11.595Z,10.60
2023-04-26T16:17:39.004Z,6.53
2023-04-26T16:20:07.009Z,8.50
2023-04-26T16:22:34.365Z,9.27
2023-04-26T16:25:01.093Z,6.70
2023-04-26T16:27:27.858Z,10.73
2023-04-26T16:29:54.505Z,14.45
2023-04-26T16:32:21.462Z,10.30
2023-04-26T16:34:48.195Z,7.20
2023-04-26T16:37:14.785Z,7.77
2023-04-26T16:39:41.345Z,6.10
2023-04-26T16:42:07.893Z,10.03
2023-04-26T16:44:34.408Z,8.70
2023-04-26T16:47:01.675Z,9.73
2023-04-26T16:49:28.354Z,8.10
2023-04-26T16:51:58.799Z,6.13
2023-04-26T16:54:26.116Z,9.37
2023-04-26T16:56:53.834Z,6.30
2023-04-26T16:59:20.745Z,9.33
2023-04-26T17:01:47.371Z,7.10
2023-04-26T17:04:14.329Z,7.87
2023-04-26T17:06:41.189Z,6.57
2023-04-26T17:09:08.705Z,7.80
2023-04-26T17:11:37.290Z,8.13
2023-04-26T17:14:04.528Z,10.47
2023-04-26T17:16:31.701Z,8.80
2023-04-26T17:18:58.612Z,6.47
2023-04-26T17:21:25.473Z,6.17
2023-04-26T17:23:52.572Z,9.53
2023-04-26T17:26:19.129Z,6.83
2023-04-26T17:28:45.833Z,9.50
2023-04-26T17:31:12.624Z,8.03
2023-04-26T17:33:39.083Z,8.00
2023-04-26T17:36:06.364Z,6.87
2023-04-26T17:38:33.388Z,14.27
2023-04-26T17:41:00.031Z,8.27
2023-04-26T17:43:27.399Z,8.30
2023-04-26T17:45:53.974Z,8.77
2023-04-26T17:48:20.596Z,12.33
2023-04-26T17:50:47.163Z,9.60
2023-04-26T17:53:13.774Z,10.50
2023-04-26T17:55:40.566Z,10.33
2023-04-26T17:58:07.003Z,9.43
2023-04-26T18:00:33.810Z,7.93
2023-04-26T18:03:02.960Z,10.23
2023-04-26T18:05:29.714Z,17.90
2023-04-26T18:07:56.596Z,23.77
2023-04-26T18:10:23.264Z,32.90
2023-04-26T18:12:49.810Z,15.57
2023-04-26T18:15:16.230Z,12.00
2023-04-26T18:17:42.844Z,10.70
2023-04-26T18:20:11.157Z,9.30
2023-04-26T18:22:37.780Z,7.33
2023-04-26T18:25:04.855Z,8.57
2023-04-26T18:27:31.777Z,7.70
2023-04-26T18:29:58.326Z,8.07
2023-04-26T18:32:24.908Z,11.03
2023-04-26T18:34:51.437Z,10.63
2023-04-26T18:37:18.280Z,9.63
2023-04-26T18:39:45.348Z,27.50
2023-04-26T18:42:11.888Z,68.20
2023-04-26T18:44:38.363Z,24.80
2023-04-26T18:47:05.704Z,13.33
2023-04-26T18:49:32.208Z,12.37
2023-04-26T18:51:58.765Z,10.73
2023-04-26T18:54:26.303Z,10.67
2023-04-26T18:56:52.834Z,10.77
2023-04-26T18:59:19.452Z,8.10
2023-04-26T19:01:45.952Z,12.43
2023-04-26T19:04:12.606Z,6.87
2023-04-26T19:06:41.368Z,8.60
2023-04-26T19:09:11.664Z,11.90
2023-04-26T19:11:38.408Z,8.27
2023-04-26T19:14:05.034Z,8.77
2023-04-26T19:16:31.948Z,12.33
2023-04-26T19:18:58.748Z,11.20
2023-04-26T19:21:25.357Z,7.83
2023-04-26T19:23:52.059Z,11.33
2023-04-26T19:26:18.621Z,11.97
2023-04-26T19:28:45.303Z,12.33
2023-04-26T19:31:11.750Z,9.87
2023-04-26T19:33:40.382Z,10.03
2023-04-26T19:36:09.003Z,13.60
2023-04-26T19:38:35.892Z,10.43
2023-04-26T19:41:02.602Z,10.83
2023-04-26T19:43:29.114Z,9.63
2023-04-26T19:45:55.626Z,13.47
2023-04-26T19:48:22.365Z,12.87
2023-04-26T19:50:48.822Z,11.60
2023-04-26T19:53:15.503Z,8.30
2023-04-26T19:55:42.437Z,10.90
2023-04-26T19:58:10.553Z,10.50
2023-04-26T20:00:38.082Z,10.67
2023-04-26T20:03:05.367Z,11.97
2023-04-26T20:05:32.242Z,12.13
2023-04-26T20:07:58.665Z,10.30
2023-04-26T20:10:25.421Z,13.43
2023-04-26T20:12:53.088Z,12.20
2023-04-26T20:15:19.593Z,11.60
2023-04-26T20:17:46.235Z,11.47
2023-04-26T20:20:13.026Z,15.00
2023-04-26T20:22:40.222Z,13.30
2023-04-26T20:25:07.705Z,11.53
2023-04-26T20:27:34.846Z,16.30
2023-04-26T20:30:01.730Z,12.07
2023-04-26T20:32:28.428Z,12.80
2023-04-26T20:34:54.906Z,12.90
2023-04-26T20:37:22.042Z,14.43
2023-04-26T20:39:49.027Z,17.10
2023-04-26T20:42:16.185Z,16.13
2023-04-26T20:44:43.141Z,15.30
2023-04-26T20:47:09.722Z,12.60
2023-04-26T20:49:36.338Z,11.53
2023-04-26T20:52:02.878Z,14.63
2023-04-26T20:54:29.501Z,15.40
2023-04-26T20:56:56.067Z,13.03
2023-04-26T20:59:24.949Z,12.40
2023-04-26T21:01:52.852Z,14.50
2023-04-26T21:06:45.809Z,13.63
2023-04-26T21:09:12.449Z,17.27
2023-04-26T21:11:38.982Z,20.33
2023-04-26T21:14:06.731Z,16.37
2023-04-26T21:16:33.310Z,19.97
2023-04-26T21:18:59.791Z,17.43
2023-04-26T21:21:28.313Z,15.27
2023-04-26T21:23:55.071Z,12.13
2023-04-26T21:26:21.548Z,16.00
2023-04-26T21:28:48.715Z,14.07
2023-04-26T21:31:15.473Z,11.73
2023-04-26T21:33:42.090Z,14.03
2023-04-26T21:36:08.846Z,10.07
2023-04-26T21:38:35.409Z,11.87
2023-04-26T21:41:01.914Z,16.00
2023-04-26T21:43:28.482Z,12.60
2023-04-26T21:45:56.417Z,13.63
2023-04-26T21:48:22.846Z,16.97
2023-04-26T21:50:49.920Z,17.73
2023-04-26T21:53:16.808Z,17.40
2023-04-26T21:55:43.186Z,17.27
2023-04-26T21:58:09.687Z,16.30
2023-04-26T22:00:36.106Z,20.20
2023-04-26T22:03:02.957Z,14.27
2023-04-26T22:05:29.618Z,20.13
2023-04-26T22:07:56.272Z,13.53
2023-04-26T22:10:22.808Z,15.40
2023-04-26T22:12:49.347Z,14.63
2023-04-26T22:15:16.321Z,15.07
2023-04-26T22:17:43.321Z,16.30
2023-04-26T22:20:10.535Z,16.83
2023-04-26T22:22:37.010Z,16.33
2023-04-26T22:25:03.980Z,18.57
2023-04-26T22:27:31.706Z,14.17
2023-04-26T22:29:58.896Z,16.07
2023-04-26T22:32:28.795Z,13.50
2023-04-26T22:34:55.445Z,12.10
2023-04-26T22:37:21.978Z,15.93
2023-04-26T22:39:49.233Z,24.83
2023-04-26T22:42:16.184Z,20.07
2023-04-26T22:44:42.630Z,24.03
2023-04-26T22:47:09.061Z,18.00
2023-04-26T22:49:35.644Z,15.73
2023-04-26T22:52:09.796Z,16.23
2023-04-26T22:54:43.694Z,15.67
2023-04-26T22:57:10.167Z,24.33
2023-04-26T22:59:36.789Z,24.53
2023-04-26T23:02:03.943Z,26.07
2023-04-26T23:04:30.483Z,28.10
2023-04-26T23:06:57.090Z,26.10
2023-04-26T23:09:23.549Z,28.50
2023-04-26T23:11:49.980Z,25.27
2023-04-26T23:14:17.221Z,25.43
2023-04-26T23:16:44.111Z,21.87
2023-04-26T23:19:11.259Z,19.90
2023-04-26T23:21:38.309Z,22.03
2023-04-26T23:24:05.508Z,16.70
2023-04-26T23:26:32.678Z,21.53
2023-04-26T23:29:00.115Z,21.60
2023-04-26T23:31:26.725Z,15.97
2023-04-26T23:33:53.524Z,19.67
2023-04-26T23:36:20.257Z,16.17
2023-04-26T23:38:46.833Z,21.10
2023-04-26T23:41:13.518Z,18.50
2023-04-26T23:43:40.399Z,19.43
2023-04-26T23:46:07.193Z,20.70
2023-04-26T23:48:33.888Z,19.20
2023-04-26T23:51:00.635Z,21.93
2023-04-26T23:53:27.735Z,18.27
2023-04-26T23:55:54.279Z,20.53
2023-04-26T23:58:20.733Z,18.70
